International TAF

Brunei, China, Hong Kong, Malaysia, Philippines, Taiwan

The availability of aerodrome forecasts from overseas locations is dependent on the regular international exchange of data. Some locations may at times be absent. If this problem persists, please advise webav@bom.gov.au

 back to top

ZSPD 21/06/2018 UTC

TAF ZSPD 211513Z 2118/2218 11004MPS 6000 BKN023 TX25/2206Z
TN20/2121Z

WIDD 21/06/2018 UTC

TAF WIDD 211100Z 2112/2212 11005KT 9000 SCT014
BECMG 2115/2117 00000KT

WAMM 21/06/2018 UTC

TAF COR WAMM 211700Z 2118/2224 10002KT 9999 SCT022
TEMPO 2118/2122 7000 -RA FEW017CB SCT018
BECMG 2200/2202 31007KT
BECMG 2209/2211 10002KT FEW022

WBSB 21/06/2018 UTC

TAF WBSB 211700Z 2118/2300 20003KT 9999 FEW003 SCT013 FEW014CB
TEMPO 2119/2121 7000 SHRA
BECMG 2203/2205 33010KT SCT016 FEW017CB

WBKK 21/06/2018 UTC

TAF WBKK 211700Z 2118/2218 19008KT 9999 FEW014
TEMPO 2118/2121 5000 RA FEW013 FEW016CB SCT035

WBGG 21/06/2018 UTC

TAF WBGG 211700Z 2118/2218 VRB03KT 9999 FEW020
TEMPO 2208/2212 12006KT 3000 TSRA FEW015CB SCT018

VHHH 21/06/2018 UTC

TAF VHHH 211700Z 2118/2224 21010KT 9999 FEW015 SCT030 TX33/2206Z
TN28/2122Z TN27/2222Z TEMPO 2122/2204 VRB15G25KT 2500 TSRA SHRA
FEW010CB SCT020 TEMPO 2204/2209 4000 SHRA FEW012CB SCT020 TEMPO
2218/2224 VRB15G25KT 2500 TSRA SHRA FEW010CB SCT020

VMMC 21/06/2018 UTC

TAF VMMC 211703Z 2118/2224 21012KT 9999 FEW015 SCT025
TEMPO 2122/2204 VRB15G25KT 2000 +TSRA FEW008 SCT015CB
TEMPO 2204/2210 4000 SHRA FEW012CB SCT020
TEMPO 2218/2224 VRB15G25KT 2000 +TSRA FEW008 SCT015CB

ZGSZ 21/06/2018 UTC

TAF ZGSZ 211515Z 2118/2218 18005MPS 8000 SCT020 TX32/2206Z
TN28/2122Z
TEMPO 2204/2210 TSRA SCT011 FEW020CB BKN030

RCTP 21/06/2018 UTC

TAF RCTP 211700Z 2118/2224 23005KT 9999 FEW015 BKN032 BKN070
BECMG 2200/2202 27014KT
TEMPO 2206/2210 14008KT 4000 SHRA SCT008 BKN011 FEW015CB BKN040
BECMG 2210/2212 17005KT

RCKH 21/06/2018 UTC

TAF RCKH 211700Z 2118/2224 06005KT 9999 FEW015 BKN032 BKN060
TEMPO 2118/2123 19008KT 2800 SHRA SCT005 BKN008 FEW012CB BKN030
BECMG 2200/2202 24010KT
TEMPO 2206/2210 15005KT FEW012 FEW015CB BKN022 BKN040
BECMG 2210/2212 12005KT

ZGGG 21/06/2018 UTC

TAF ZGGG 211507Z 2118/2218 15003MPS 9999 BKN033 TX35/2207Z
TN27/2122Z
TEMPO 2203/2209 2000 TSRA SCT011 SCT030CB BKN033 TEMPO 2210/2216
2000
TSRA SCT011 SCT030CB BKN033

ZBAA 21/06/2018 UTC

TAF ZBAA 211530Z 2118/2218 18004MPS 5000 HZ NSC TX32/2207Z
TN22/2121Z

ZSSS 21/06/2018 UTC

TAF ZSSS 211511Z 2118/2218 11004MPS 6000 BKN023 TX25/2206Z
TN22/2121Z

ZBTJ 21/06/2018 UTC

TAF ZBTJ 211522Z 2118/2218 18004MPS 2000 BR NSC TX32/2207Z
TN23/2121Z
BECMG 2123/2124 3000 TEMPO 2208/2212 -TSRA FEW030CB SCT030

ZBYN 21/06/2018 UTC

TAF ZBYN 211515Z 2118/2218 09003MPS 4000 BR NSC TX31/2207Z
TN18/2122Z
TEMPO 2206/2210 -TSRA FEW030CB SCT040

ZSHC 21/06/2018 UTC

TAF ZSHC 211502Z 2118/2218 09003MPS 3000 -RA BR BKN030 TX24/2206Z
TN21/2121Z TEMPO 2200/2206 SHRA BKN030 FEW030CB

ZSOF 21/06/2018 UTC

TAF ZSOF 211502Z 211818 10003MPS 5000 HZ NSC TX28/07Z TN22/21Z

ZWWW 21/06/2018 UTC

TAF ZWWW 211505Z 2118/2218 03004MPS CAVOK TX30/2209Z TN19/2123Z
BECMG 2213/2214 18004MPS

ZYTL 21/06/2018 UTC

TAF ZYTL 211449Z 2118/2218 17004MPS CAVOK TX33/2206Z TN21/2121Z

RPLL 21/06/2018 UTC

TAF RPLL 211700Z 2118/2224 24005KT 9999 FEW025 SCT100
TX31/2206Z TN25/2122Z
TEMPO 2118/2124 VRB03KT SCT023 BKN100
TEMPO 2200/2206 25008KT FEW023 BKN100

RPVM 21/06/2018 UTC

TAF RPVM 211700Z 2118/2224 23005KT 9999 FEW020 SCT300
TEMPO 2118/2124 VRB03KT FEW020 BKN300
TEMPO 2200/2206 33006KT 9000 -TSRA SCT018CB BKN100

RPMZ 21/06/2018 UTC

TAF RPMZ 211700Z 2118/2218 16004KT 9999 FEW017 BKN090
TEMPO 2118/2124 00000KT 9000 -SHRA FEW017 OVC090

Australian International

The availability of aerodrome forecasts from overseas locations is dependent on the regular international exchange of data. Some locations may at times be absent. If this problem persists, please advise webav@bom.gov.au

 back to top

YMML 21/06/2018 UTC

TAF YMML 211730Z 2118/2224
35008KT CAVOK
FM222200 34012KT 9999 -SHRA SCT020 BKN030
RMK
T 04 05 09 13 Q 1027 1028 1028 1026

YSSY 21/06/2018 UTC

TAF YSSY 211632Z 2118/2224
29008KT CAVOK
FM220200 02008KT CAVOK
FM221200 29008KT CAVOK
PROB30 2119/2122 0500 FG
RMK
T 09 09 13 16 Q 1027 1027 1028 1026

YBBN 21/06/2018 UTC

TAF YBBN 211709Z 2118/2224
20007KT 9999 FEW030
FM220200 16010KT 9999 FEW035
FM220400 11008KT 9999 FEW040
FM220900 20006KT 9999 FEW035
RMK
T 11 11 18 21 Q 1024 1026 1026 1024

YSCB 21/06/2018 UTC

TAF AMD YSCB 211708Z 2118/2218
VRB03KT CAVOK
FM220100 30007KT CAVOK
FM221000 30003KT CAVOK
PROB30 2118/2123 0500 FZFG
PROB30 2123/2201 0500 FG
PROB30 2212/2218 0500 FZFG
RMK
T M02 M02 05 11 Q 1027 1027 1028 1026

YBCS 21/06/2018 UTC

TAF YBCS 211733Z 2118/2218
17008KT 9999 FEW025
FM212300 14012KT 9999 FEW040
FM220800 17008KT 9999 FEW025
RMK
T 18 18 24 26 Q 1018 1019 1020 1018

YBAS 21/06/2018 UTC

TAF YBAS 211718Z 2118/2218
30005KT CAVOK
FM220000 14010KT CAVOK
FM221000 34004KT CAVOK
RMK
T 01 M01 10 15 Q 1024 1025 1026 1025

YBMA 21/06/2018 UTC

TAF YBMA 211614Z 2118/2206
14008KT CAVOK
RMK
T 11 08 18 23 Q 1020 1020 1021 1019

YPAD 21/06/2018 UTC

TAF YPAD 211704Z 2118/2224
04005KT 9999 FEW035
FM220100 32008KT 9999 FEW035
FM220900 03005KT CAVOK
FM221800 04005KT 9999 -SHRA FEW010 BKN020
RMK
T 07 07 11 14 Q 1028 1027 1028 1027

YPDN 21/06/2018 UTC

TAF YPDN 211720Z 2118/2224
12005KT CAVOK
FM212300 11012KT CAVOK
FM220600 05006KT CAVOK
FM221000 13005KT CAVOK
RMK
T 21 19 23 29 Q 1014 1015 1016 1015

YPTN 21/06/2018 UTC

TAF YPTN 211718Z 2118/2218
13005KT CAVOK
FM220000 12012KT CAVOK
FM220800 13006KT CAVOK
RMK
T 11 11 20 26 Q 1017 1017 1019 1017

YPPH 21/06/2018 UTC

TAF YPPH 211712Z 2118/2224
03003KT 9999 SCT040
FM220600 VRB05KT 9999 -SHRA SCT030
FM221300 10005KT CAVOK
PROB30 2118/2201 0300 FG
RMK
T 10 10 11 16 Q 1028 1028 1029 1030

YPLM 21/06/2018 UTC

TAF YPLM 211710Z 2118/2218
20010KT CAVOK
FM212200 12012KT CAVOK
FM221000 20008KT CAVOK
RMK
T 12 12 14 20 Q 1021 1021 1023 1022

YCAR 21/06/2018 UTC

TAF YCAR 210217Z 2104/2112
12012KT CAVOK
FM210600 19012KT CAVOK
FM211000 14010KT CAVOK
RMK
T 20 22 19 Q 1024 1022 1023

YPCC 21/06/2018 UTC

TAF YPCC 211711Z 2118/2218
10016KT 9999 -SHRA SCT020
RMK
T 27 27 27 28 Q 1012 1011 1012 1014

YPPD 21/06/2018 UTC

TAF YPPD 211710Z 2118/2218
13010KT CAVOK
FM220100 11018G28KT CAVOK
FM220400 12014KT CAVOK
RMK
T 14 13 18 24 Q 1020 1020 1021 1020

YBTL 21/06/2018 UTC

TAF YBTL 211734Z 2118/2218
14008KT 9999 FEW020
FM220100 10014KT 9999 -SHRA SCT025 SCT050
FM220800 14008KT 9999 -SHRA SCT020 BKN040
RMK
T 13 14 22 25 Q 1019 1020 1021 1019

YMHB 21/06/2018 UTC

TAF YMHB 211718Z 2118/2218
34012KT 9999 SCT040
FM221500 33010KT 9999 -SHRA BKN035
RMK FM212200 MOD TURB BLW 5000FT
T 06 06 09 13 Q 1023 1022 1022 1019

YPXM 21/06/2018 UTC

TAF YPXM 211710Z 2118/2218
11016KT 9999 BKN014
FM220200 12016KT 9999 BKN016
RMK
T 24 24 24 25 Q 1015 1014 1015 1016

New Zealand

The availability of aerodrome forecasts from overseas locations is dependent on the regular international exchange of data. Some locations may at times be absent. If this problem persists, please advise webav@bom.gov.au

 back to top

NZAA 21/06/2018 UTC

TAF NZAA 211701Z 2118/2218 16008KT 9999 FEW050
BECMG 2201/2203 20010KT
FM221100 VRB02KT 9999 -SHRA SCT020 BKN035
TEMPO 2214/2218 7000 SHRA

NZWN 21/06/2018 UTC

TAF NZWN 211701Z 2118/2218 03005KT 9999 FEW030
BECMG 2200/2202 34010KT
FM221000 03008KT 9999 -SHRA BKN025

NZCH 21/06/2018 UTC

TAF NZCH 211701Z 2118/2218 VRB02KT CAVOK

YLHI 21/06/2018 UTC

TAF YLHI 211520Z 2118/2218
19012KT 9999 -SHRA SCT030 BKN040
FM220800 15008KT 9999 -SHRA SCT020 SCT030
INTER 2118/2208 5000 SHRA BKN030
INTER 2208/2218 5000 SHRA BKN020
RMK
T 17 16 16 16 Q 1022 1022 1022 1023

YSNF 21/06/2018 UTC

TAF AMD YSNF 211708Z 2118/2218
19014KT 9999 -SHRA SCT025 BKN040
FM212200 17015G25KT 9999 -SHRA SCT020 BKN040
FM220800 15012KT 9999 -SHRA SCT020 BKN030
INTER 2118/2206 5000 -SHRA SCT015
INTER 2206/2218 5000 -SHRA BKN015
RMK
T 16 17 18 18 Q 1016 1017 1018 1017

Indonesia, Malaysia, Myanmar, Singapore, Thailand, Vietnam

The availability of aerodrome forecasts from overseas locations is dependent on the regular international exchange of data. Some locations may at times be absent. If this problem persists, please advise webav@bom.gov.au

 back to top

WADA

TAF not available.

WAAA 21/06/2018 UTC

TAF WAAA 211700Z 2118/2300 10004KT 8000 SCT020
BECMG 2201/2203 22010KT 9999 SCT019
BECMG 2211/2213 08004KT 8000

WIII 21/06/2018 UTC

TAF WIII 211700Z 2118/2300 13005KT 7000 SCT020

WIHH 21/06/2018 UTC

TAF WIHH 211100Z 2112/2212 06010KT 8000 FEW020
BECMG 2118/2120 00000KT 5000 HZ

WIMM 21/06/2018 UTC

TAF WIMM 211700Z 2118/2218 VRB04KT 3000 BR SCT018
BECMG 2203/2205 05010KT 9000
TEMPO 2209/2211 6000 -TSRA FEW017CB SCT018
BECMG 2211/2213 VRB05KT 4500 HZ

WIPP 21/06/2018 UTC

TAF WIPP 211700Z 2118/2218 20004KT 9999 FEW012
TEMPO 2121/2124 3000 BR
BECMG 2201/2203 12008KT 9999 SCT012

WIKD

TAF not available.

WARR 21/06/2018 UTC

TAF WARR 211700Z 2118/2218 10005KT 7000 FEW020
TEMPO 2121/2200 26005KT 4000 HZ
BECMG 2200/2202 11010KT 9999

WADD 21/06/2018 UTC

TAF WADD 211700Z 2118/2218 11015KT 9999 SCT017
BECMG 2210/2212 11010KT

WRRA

TAF not available.

WALL 21/06/2018 UTC

TAF WALL 211700Z 2118/2224 26004KT 9000 SCT018 BECMG 2120/2122 FEW018CB SCT018 TEMPO
2200/2203 6000 -RA

WSSS 21/06/2018 UTC

TAF WSSS 211700Z 2118/2300 15009KT 9999 FEW018CB SCT020
TEMPO 2203/2208 3000 TSRA FEW012CB BKN015

WSAP 21/06/2018 UTC

TAF WSAP 211700Z 2118/2300 15009KT 9999 FEW018CB SCT020
TEMPO 2203/2208 3000 TSRA FEW012CB BKN015

WMKK 21/06/2018 UTC

TAF WMKK 211700Z 2118/2300 VRB03KT 9999 FEW017CB
TEMPO 2118/2222 15005KT 4000 TSRA FEW008 FEW016CB
BECMG 2121/2122 VRB03KT FEW030
PROB30 TEMPO 2206/2210 17007KT 4000 TSRA FEW017CB

WMSA 21/06/2018 UTC

TAF WMSA 211700Z 2118/2218 VRB02KT 9999 FEW017CB
TEMPO 2118/2122 5000 TSRA FEW010 FEW016CB
BECMG 2200/2201 18005KT
PROB30 TEMPO 2208/2212 4000 TSRA FEW015CB

WMKP 21/06/2018 UTC

TAF WMKP 211700Z 2118/2218 01005KT 9000 FEW020 SCT140 BKN270
BECMG 2204/2206 23010KT
BECMG 2212/2214 01005KT

WMKJ 21/06/2018 UTC

TAF WMKJ 211700Z 2118/2218 VRB02KT 9999 FEW022
BECMG 2120/2122 3000 BR FEW010
BECMG 2123/2201 8000
TEMPO 2206/2210 21007G27KT 3000 TSRA FEW008 FEW015CB
BECMG 2211/2212 VRB02KT FEW025

WMKD 21/06/2018 UTC

TAF WMKD 211700Z 2118/2218 13005KT 9999 FEW017CB
BECMG 2201/2203 FEW020

WMKB 21/06/2018 UTC

TAF WMKB 211700Z 2118/2218 VRB02KT 8000 FEW025
BECMG 2200/2201 06005KT FEW020
BECMG 2204/2206 28010KT 9999
PROB30 TEMPO 2212/2217 11005KT 6000 TSRA FEW017CB SCT023

VTBD 21/06/2018 UTC

TAF VTBD 211700Z 2118/2224 21008KT 9999 FEW020
TEMPO 2204/2210 VRB10KT 5000 TSRA FEW018CB SCT030 BKN100
TEMPO 2214/2218 VRB10KT 5000 TSRA FEW018CB SCT030 BKN100

VTBS 21/06/2018 UTC

TAF VTBS 211700Z 2118/2224 20008KT 9999 FEW020
TEMPO 2204/2210 VRB10KT 5000 TSRA FEW018CB SCT030 BKN100
TEMPO 2214/2218 VRB10KT 5000 TSRA FEW018CB SCT030 BKN100

VTBU 21/06/2018 UTC

TAF VTBU 211700Z 2118/2218 24004KT 8000 FEW020
BECMG 2200/2202 20008KT 9999
TEMPO 2206/2211 FEW020CB

VTCC 21/06/2018 UTC

TAF VTCC 211700Z 2118/2224 22005KT 9999 SCT035
TEMPO 2208/2215 VRB15G25KT 5000 TSRA FEW025CB BKN030

VTSP 21/06/2018 UTC

TAF VTSP 211700Z 2118/2224 VRB02KT 8000 FEW020 SCT100
BECMG 2204/2206 28010KT 9999
PROB30 TEMPO 2208/2212 29015G25KT 5000 RA FEW016CB SCT020 BKN100
BECMG 2216/2218 VRB02KT 8000

VTSS 21/06/2018 UTC

TAF VTSS 211700Z 2118/2218 VRB02KT 9999 FEW020
BECMG 2204/2206 26010KT BECMG 2213/2215 VRB02KT

VVTS 21/06/2018 UTC

TAF VVTS 211700Z 2118/2224 25008KT 9999 SCT017 SCT040
TEMPO 2209/2212 5000 TSRA BKN012 FEW015CB

VDPP 21/06/2018 UTC

TAF VDPP 211700Z 2118/2212 20004KT 9999 SCT017
TEMPO 2206/2211 SCT015 FEW017CB SCT040

VVNB 21/06/2018 UTC

TAF VVNB 211700Z 2118/2218 12006KT 6000 FEW025
BECMG 2121/2122 4000 BR BECMG 2200/2201 6000 NSW

VYYY 21/06/2018 UTC

TAF VYYY 211700Z 2118/2218 24005KT 7000 BKN014 FEW020CB BKN100
TEMPO 2118/2123 4000 RA BKN012 FEW016CB OVC090

South America

The availability of aerodrome forecasts from overseas locations is dependent on the regular international exchange of data. Some locations may at times be absent. If this problem persists, please advise webav@bom.gov.au

 back to top

SAEZ 21/06/2018 UTC

TAF SAEZ 211700Z 2118/2218 24015KT CAVOK TX16/2118Z TN06/2210Z BECMG
2120/2122 27010KT BECMG 2206/2209 27003KT PROB30 2209/2212 5000 BR
BECMG 2212/2215 33007KT

SAVC 21/06/2018 UTC

TAF SAVC 211700Z 2118/2218 27020KT 9999 SCT030 SCT080 TX11/2119Z
TN02/2110Z BECMG 2119/2121 30012KT BKN030 BKN040 TEMPO 2123/2205
5000 RA OVC015 BECMG 2106/2108 25015KT

SCIE 21/06/2018 UTC

TAF SCIE 211626Z 2118/2218 21013KT CAVOK TX14/2119Z TN03/2211Z TEMPO
2200/2206 VRB02KT 4000 BR NSC BECMG 2201/2203 19004KT BECMG 2204/2206
15007KT BECMG 2214/2216 21009KT

SACO 21/06/2018 UTC

TAF SACO 211700Z 2118/2218 23010KT CAVOK TX18/2218Z TN02/2210Z
BECMG 2203/2206 36010KT SCT030

SCIP 21/06/2018 UTC

TAF SCIP 211639Z 2118/2218 14015KT 9999 SCT025 SCT040
TX22/2119Z TN18/2210Z
TEMPO 2123/2204 14020KT 7000 -SHRA SCT015 BKN030
BECMG 2205/2207 11010KT SCT020 BKN040
TEMPO 2211/2215 14010KT 7000 -SHRA SCT015 BKN030

SAZM 21/06/2018 UTC

TAF SAZM 211700Z 2118/2218 23020G30KT SCT049 TX13/2118Z TN03/2210Z
TEMPO 2118/2121 23025G35KT 9999 FEW040
BECMG 2122/2200 23015G25KT CAVOK
BECMG 2203/2206 29015G25KT
TEMPO 2209/2212 29020G35KT

SAME 21/06/2018 UTC

TAF SAME 211700Z 2118/2218 14010KT 9999 FEW040 SCT100 TX18/2120Z
TN04/2210Z
TEMPO 2212/2214 00000KT 5000 FUHZ SKC

SUMU 21/06/2018 UTC

TAF SUMU 211720Z 2118/2218 27015KT CAVOK TX12/2118Z TN05/2210Z
BECMG 2206/2210 24010KT

SAZN 21/06/2018 UTC

TAF SAZN 211700Z 2118/2218 25010KT CAVOK
TX18/2218Z TN02/2211Z
BECMG 2118/2120 SCT030 BKN100

SCTE 21/06/2018 UTC

TAF SCTE 211644Z 2118/2218 01008KT 9999 BKN030 TX10/2119Z
TN07/2210Z
TEMPO 2202/2206 01013KT 8000 -RA OVC025
BECMG 2206/2208 34008KT 5000 -RA OVC025
BECMG 2214/2216 23008KT 9999 NSW BKN030
TEMPO 2216/2218 8000 -SHRA

SCCI 21/06/2018 UTC

TAF SCCI 211622Z 2118/2218 25020G30KT 9000 FEW018 SCT030
TX03/2120Z
TNM02/2211Z PROB40
TEMPO 2202/2204 4000 -SHSN SCT010 BKN020
TEMPO 2208/2217 23025G37KT
TEMPO 2212/2218 3000 SHSN SCT010 BKN020

SAWG 21/06/2018 UTC

TAF SAWG 211700Z 2118/2218 25020G30KT 9999 SCT020 SCT040
TX03/2119Z
TNM01/2210Z
BECMG 2203/2205 28025KT BKN020 BKN030 PROB30
TEMPO 2205/2210 3000 SHSN

SAAR 21/06/2018 UTC

TAF SAAR 211700Z 2118/2218 18015KT CAVOK TX19/2118Z TN07/2210Z
BECMG 2120/2123 23005KT
BECMG 2207/2209 34005KT

SAZS 21/06/2018 UTC

TAF SAZS 211700Z 2118/2218 29025G35KT 9999 SCT030 TX07/2218Z
TN03/2212Z
BECMG 2120/2122 BKN015
BECMG 2123/2202 29030G40KT

SCEL 21/06/2018 UTC

TAF COR SCEL 211732Z 2118/2218 VRB03KT 8000 NSC TX16/2119Z TN01/2211Z
BECMG 2119/2121 19010KT CAVOK BECMG 2202/2204 16004KT 7000 NSC BECMG
2206/2208 VRB02KT 4000 BR TEMPO 2210/2214 0600 BCFG

SAWH 21/06/2018 UTC

TAF SAWH 211700Z 2118/2218 25020G30KT 9999 BKN015 BKN020
TX02/2119Z
TNM04/2210Z
TEMPO 2201/2210 1000 SHSN OVC008

Guam, Japan, Korea

The availability of aerodrome forecasts from overseas locations is dependent on the regular international exchange of data. Some locations may at times be absent. If this problem persists, please advise webav@bom.gov.au

 back to top

PGUA 21/06/2018 UTC

TAF PGUA 211000Z 2110/2216 09009KT 9999 SCT020 QNH2982INS
TEMPO 2110/2116 BKN018 TX31/2202Z TN25/2119Z

PGUM 21/06/2018 UTC

TAF PGUM 211730Z 2118/2224 08008KT P6SM VCSH FEW020 SCT200

PGSN 21/06/2018 UTC

TAF PGSN 211730Z 2118/2218 08010KT P6SM VCSH SCT020 BKN200

PTRO 21/06/2018 UTC

TAF PTRO 211730Z 2118/2218 VRB04KT P6SM VCSH SCT016 BKN120

RJOO

21/06/2018 UTC

TAF RJOO 211708Z 2118/2300 32004KT 9999 FEW025 BECMG 2201/2203
22007KT BECMG 2209/2212 32004KT

RJOB 21/06/2018 UTC

TAF RJOB 211707Z 2118/2300 01005KT 9999 FEW025 BECMG 2201/2203
17005KT BECMG 2209/2212 01005KT

RJGG 21/06/2018 UTC

TAF RJGG 211705Z 2118/2300 31010KT 9999 FEW020 BECMG 2201/2203
18010KT BECMG 2215/2218 06006KT

RJCC 21/06/2018 UTC

TAF RJCC 211706Z 2118/2300 17008KT 9999 FEW005 BKN015 TEMPO
2118/2122 0300 FG VV001 TEMPO 2122/2200 3000 BR FEW003
BKN005 BECMG 2202/2204 23010KT BECMG 2209/2212 14010KT

RJSS 21/06/2018 UTC

TAF RJSS 211705Z 2118/2300 24004KT 9999 FEW020 BECMG 2201/2203
16008KT BECMG 2206/2209 29010KT

RJFK 21/06/2018 UTC

TAF RJFK 211705Z 2118/2300 02003KT 8000 FEW008 SCT010 BKN020 TEMPO
2118/2200 0800 FG FEW001 BKN003 BKN008 BECMG 2123/2201
09010KT BECMG 2206/2209 16005KT BECMG 2215/2218 35006KT
TEMPO 2215/2300 3000 SHRA BR FEW003 BKN006 BKN010

RJAA 21/06/2018 UTC

TAF AMD RJAA 211808Z 2118/2300 32004KT 2000 BR FEW005 BKN008 TEMPO
2118/2121 0500 FG BKN001 BECMG 2121/2123 9999 NSW FEW020
BKN040 BECMG 2200/2202 16012KT

RJBB 21/06/2018 UTC

TAF RJBB 211709Z 2118/2300 07004KT 9999 FEW030 BECMG 2202/2204
28007KT BECMG 2215/2218 06008KT

RJTT 21/06/2018 UTC

TAF RJTT 211705Z 2118/2300 32005KT 9999 FEW015 BECMG 2122/2200
10007KT BECMG 2201/2203 16010KT BECMG 2218/2221 10005KT
TEMPO 2221/2300 FEW005 BKN008

RJFF 21/06/2018 UTC

TAF RJFF 211707Z 2118/2300 15005KT 9999 FEW030 BECMG 2200/2202
31010KT BECMG 2212/2215 15005KT

RJFT 21/06/2018 UTC

TAF RJFT 211716Z 2118/2300 04008KT 9999 FEW030 BECMG 2204/2206
22006KT BECMG 2212/2215 05004KT TEMPO 2218/2300 4000 -SHRA
BR FEW002 BKN005 BKN010

RJFU 21/06/2018 UTC

TAF RJFU 211707Z 2118/2300 14003KT 9999 FEW008 BECMG 2121/2123
32005KT BECMG 2212/2215 14003KT

ROAH 21/06/2018 UTC

TAF ROAH 211709Z 2118/2300 19010KT 9999 FEW010

RKSS 21/06/2018 UTC

TAF RKSS 211700Z 2118/2224 32005KT 3500 BR SCT030
TN18/2121Z TX29/2206Z TN18/2221Z
BECMG 2122/2123 21006KT 6000 NSW
TEMPO 2203/2210 27007KT
BECMG 2211/2212 32005KT
BECMG 2218/2219 3500 BR
BECMG 2221/2222 21006KT 6000 NSW

RKSI 21/06/2018 UTC

TAF RKSI 211700Z 2118/2224 28005KT 3500 BR SCT030
TN18/2121Z TX26/2205Z TN19/2221Z
TEMPO 2118/2120 1200 BKN004
BECMG 2122/2123 17006KT 6000 NSW
BECMG 2205/2206 27006KT NSC
BECMG 2214/2215 19005KT 4200 BR FEW010 BKN180
TEMPO 2216/2220 2800

RKSM 21/06/2018 UTC

TAF RKSM 211700Z 2118/2224 27002KT 9999 FEW200 BECMG 2119/2120
24006KT 4800 BR BKN015 BECMG 2122/2123 24006KT 4800 BR
FEW030 SCT200 VIS 9999 NSW AFT 2201 TN17/2121Z TX32/2206Z

RKPK 21/06/2018 UTC

TAF RKPK 211700Z 2118/2224 33006KT 9999 SCT030 BKN200
TN20/2121Z TX32/2203Z
BECMG 2203/2204 18010KT
BECMG 2212/2213 33006KT
BECMG 2215/2216 4800 BR

RKPC 21/06/2018 UTC

TAF RKPC 211700Z 2118/2224 20005KT 7000 NSC
TN18/2120Z TX25/2206Z TN19/2220Z
BECMG 2123/2124 03005KT
BECMG 2212/2213 17005KT
TEMPO 2215/2218 4200 BR BKN025

Indonesia, Pakistan, Singapore, India, Sri Lanka, United Arab Emirates

The availability of aerodrome forecasts from overseas locations is dependent on the regular international exchange of data. Some locations may at times be absent. If this problem persists, please advise webav@bom.gov.au

 back to top

WIII 21/06/2018 UTC

TAF WIII 211700Z 2118/2300 13005KT 7000 SCT020

WSSS 21/06/2018 UTC

TAF WSSS 211700Z 2118/2300 15009KT 9999 FEW018CB SCT020
TEMPO 2203/2208 3000 TSRA FEW012CB BKN015

VCBI 21/06/2018 UTC

TAF VCBI 211540Z 2118/2224 24015G25KT 9999 SCT016 TX30/2207Z
TN25/2200Z PROB30
TEMPO 2123/2208 6000 -SHRA SCT012 BKN016 FEW020CB

VECC 21/06/2018 UTC

TAF VECC 211700Z 2118/2224 18007KT 3000 -RA HZ SCT018 BKN090
BECMG 2121/2123 2200 -RA HZ
BECMG 2202/2204 3200 -RA HZ
TEMPO 2206/2210 1500 TSRA SCT015 FEW025CB BKN090
BECMG 2220/2222 2200 -RA HZ

VOMM 21/06/2018 UTC

TAF VOMM 211700Z 2118/2224 20010KT 6000 FEW020 SCT100
BECMG 2121/2122 VRB02KT 5000 HZ
BECMG 2203/2204 23010KT 6000
BECMG 2210/2211 16010KT
TEMPO 2210/2218 SCT018 FEW025TCU/CB BKN100
BECMG 2218/2219 22010KT
BECMG 2221/2222 VRB02KT 5000 HZ

VOTV 21/06/2018 UTC

TAF VOTV 211700Z 2118/2224 04005KT 3000 /RA HZ FEW008 SCT012
FEW025CB BKN080
TEMPO 2118/2122 1500 RA HZ
TEMPO 2200/2203 1500 TSRA RA
BECMG 2204/2206 32010KT 5000 DZ HZ SCT010 SCT012 FEW025CB
BKN080
TEMPO 2209/2213 2000 SHRA RA
BECMG 2214/2215 03005KT 3000 /RA HZ

VABB 21/06/2018 UTC

TAF VABB 211700Z 2118/2224 22008KT 3000 HZ FEW012 SCT018 OVC080
BECMG 2122/2124 VRB03KT
TEMPO 2118/2206 2000 -TSRA -SHRA SCT012 FEW030CB OVC090
BECMG 2204/2206 24008KT 4000 HZ
BECMG 2208/2210 23008G18KT 5000 HZ
TEMPO 2209/2218 1500 TSRA SHRA BKN010 FEW030CB OVC080
BECMG 2214/2216 24008KT 4000 HZ
TEMPO 2218/2224 2000 -TSRA -SHRA SCT012 FEW030CB BKN080
BECMG 2218/2220 3000 HZ
BECMG 2222/2224 VRB03KT

VAAH 21/06/2018 UTC

TAF VAAH 211700Z 2118/2224 22010KT 4000 FU SCT080
BECMG 2201/2203 25008KT 3000 FU SCT020 SCT080
BECMG 2204/2206 27008KT 6000 SCT025
BECMG 2212/2214 23008KT 4000 FU FEW020 SCT025

VILK 21/06/2018 UTC

TAF VILK 211700Z 2118/2224 00000KT 3000 HZ SCT020 BKN100
TEMPO 2119/2123 FEW030CB
BECMG 2200/2202 27003KT 4000 HZ FEW020 SCT100
BECMG 2213/2215 VRB03KT 3000 HZ SCT020 SCT100
TEMPO 2218/2222 FEW030CB

VANP 21/06/2018 UTC

TAF VANP 211700Z 2118/2224 27005KT 3000 RA HZ SCT015 FEW025TCU
BKN090
TEMPO 2118/2122 09015G25KT 1500 TSRA BKN010 BKN015 FEW030CB
OVC080
BECMG 2200/2202 19003KT 4000 HZ -RA SCT018 BKN090
TEMPO 2122/2202 09015G25KT 1500 TSRA BKN010 BKN015 FEW030CB
OVC080
BECMG 2204/2206 23008KT 6000 FEW020 SCT100
BECMG 2207/2209 19005KT SCT020 SCT025 FEW030TCU
TEMPO 2210/2214 09015G25KT 1500 TSRA BKN010 BKN015 FEW030CB
OVC080
BECMG 2211/2213 4000 HZ -RA
BECMG 2218/2220 SCT018 BKN090

VRMM 21/06/2018 UTC

TAF VRMM 211100Z 2112/2218 23012KT 9999 FEW018 BKN120 TEMPO
2113/2120 5000 -TSRA SCT017CB

VOHS 21/06/2018 UTC

TAF VOHS 211700Z 2118/2224 20006KT 5000 HZ SCT015 SCT100 TEMPO
2118/2203 18005KT 4000 BR DZ FEW010 FEW030CB BKN100 BECMG
2204/2206 25010KT 6000 SCT015 SCT100 TEMPO 2211/2219 22006KT
4000 .RA SCT025 FEW030CB BKN080 TEMPO 2219/2222 18005KT 5000 HZ
.RA SCT015 FEW030TCU BKN090 TEMPO 2222/2224 20005KT 5000 HZ -RA
FEW025 BKN090

OPKC 21/06/2018 UTC

TAF OPKC 211600Z 2118/2224 25008G18KT 5000 HZ BKN020 FM220600
23010G20KT 6000 BKN020 FM221800 23010G20KT 5000 BKN020

OBBI 21/06/2018 UTC

TAF OBBI 211700Z 2118/2300 33013KT CAVOK PROB30 TEMPO 2120/2203 5000
DU BECMG 2203/2205 32017G27KT BECMG 2215/2217 33010KT

OMAA 21/06/2018 UTC

TAF OMAA 211700Z 2118/2300 28007KT 8000 NSC
BECMG 2119/2121 19006KT
PROB30 TEMPO 2201/2204 3000 HZ BKN006
BECMG 2206/2208 30014KT
BECMG 2219/2221 22004KT

OMDB 21/06/2018 UTC

TAF OMDB 211653Z 2118/2300 21007KT 8000 NSC
PROB30 2201/2204 4000 HZ
BECMG 2207/2209 28013KT
BECMG 2217/2219 19005KT

OOMS 21/06/2018 UTC

TAF OOMS 211700Z 2118/2224 22015KT 8000 NSC BECMG 2206/2208 35012KT
BECMG 2211/2213 06008KT BECMG 2217/2219 20015KT

OMSJ 21/06/2018 UTC

TAF OMSJ 211653Z 2118/2300 19007KT 8000 NSC
PROB30 2200/2204 4000 HZ
BECMG 2207/2209 27014KT
BECMG 2216/2218 18005KT

Malawi, Mauritius, South Africa, Zambia, Zimbabwe

The availability of aerodrome forecasts from overseas locations is dependent on the regular international exchange of data. Some locations may at times be absent. If this problem persists, please advise webav@bom.gov.au

 back to top

FIMP 21/06/2018 UTC

TAF FIMP 211700Z 2118/2300 13005KT 9999 SCT015 BKN050 TEMPO
2118/2212 7000 -SHRA FEW010 BKN015 BKN045 BECMG 2122/2300 VRB03KT
PROB30 TEMPO 2200/2206 5000 SHRA FEW007 BKN014 BECMG 2204/2206
12007KT

FMEE 21/06/2018 UTC

TAF FMEE 211700Z 2118/2224 16005KT 9999 FEW030
BECMG 2205/2207 09015KT
BECMG 2213/2215 16005KT

FLKK

TAF not available.

FWKI 21/06/2018 UTC

TAF FWKI 210410Z 2106/2212 11008KT CAVOK BECMG 2107/2109 12010KT 9999
FEW025 BECMG 2111/2113 09010KT 9999 SCT030 FM211600 10005KT CAVOK
PROB30 TEMPO 2202/2205 VRB02KT 2000 BCFG NSC

FAOR 21/06/2018 UTC

TAF FAOR 211600Z 2118/2224 31007KT CAVOK
BECMG 2123/2201 VRB03KT
BECMG 2207/2209 18007KT
BECMG 2219/2221 VRB03KT
TX20/2212Z TN07/2204Z

FVHA 21/06/2018 UTC

TAF FVHA 211000Z 2112/2218 12008KT CAVOK

FAWK 21/06/2018 UTC

TAF FAWK 211800Z 2119/2206 NIL

FABL 21/06/2018 UTC

TAF FABL 211600Z 2118/2218 VRB03KT CAVOK
BECMG 2211/2213 34005KT
BECMG 2216/2218 VRB03KT
TX20/2212Z TN00/2204Z

FALE 21/06/2018 UTC

TAF FALE 211600Z 2118/2224 35004KT CAVOK
BECMG 2121/2123 26003KT
BECMG 2200/2202 20013KT
FM221400 14008KT 9999 SCT035
BECMG 2218/2220 04005KT
TX23/2212Z TN08/2203Z

YPCC 21/06/2018 UTC

TAF YPCC 211711Z 2118/2218
10016KT 9999 -SHRA SCT020
RMK
T 27 27 27 28 Q 1012 1011 1012 1014

United States (includes Hawaii) and Mexican emergency/alternates

The availability of aerodrome forecasts from overseas locations is dependent on the regular international exchange of data. Some locations may at times be absent. If this problem persists, please advise webav@bom.gov.au

 back to top

PHNL 21/06/2018 UTC

TAF PHNL 211721Z 2118/2224 03005KT P6SM FEW025 FEW045
FM212000 06012G18KT P6SM FEW025 SCT045
FM220600 06009KT P6SM FEW025 SCT045
FM222000 06014G20KT P6SM FEW025 SCT045

PHLI 21/06/2018 UTC

TAF PHLI 211721Z 2118/2218 07009KT P6SM SCT020 SCT035
FM212000 06012G18KT P6SM SCT025 SCT045
FM220600 07012KT P6SM SCT025 SCT045

PHOG 21/06/2018 UTC

TAF PHOG 211721Z 2118/2218 VRB06KT P6SM FEW035
FM212000 05020G28KT P6SM FEW030 SCT050
FM220600 06012KT P6SM FEW050

PHTO 21/06/2018 UTC

TAF AMD PHTO 211736Z 2118/2218 24005KT 6SM HZ VCSH BKN030 OVC060
FM212000 09011KT P6SM FEW025 SCT040
FM220600 24005KT P6SM VCSH SCT025 BKN040

PKMJ 21/06/2018 UTC

TAF PKMJ 211730Z 2118/2218 29013KT P6SM VCSH FEW015 SCT050 BKN120

KLAX 21/06/2018 UTC

TAF KLAX 211740Z 2118/2224 07003KT 5SM HZ OVC016
FM211900 26012KT P6SM SCT016
FM220300 26006KT P6SM BKN015
FM220900 12006KT P6SM OVC012
FM221600 VRB03KT P6SM BKN015
FM222000 26012KT P6SM SCT016

KONT 21/06/2018 UTC

TAF KONT 211729Z 2118/2224 24004KT 4SM HZ SKC
FM212000 24011G17KT P6SM SKC
FM220400 25006KT P6SM SKC
FM221200 24003KT 4SM BR BKN007
FM221700 24005KT 5SM HZ SCT010
FM222000 24012G20KT P6SM SKC

KPMD 21/06/2018 UTC

TAF KPMD 211740Z 2118/2218 36004KT P6SM SKC
FM212100 25018G28KT P6SM SKC
FM220300 25015KT P6SM SKC

KSAN 21/06/2018 UTC

TAF KSAN 211729Z 2118/2224 00000KT P6SM OVC010
TEMPO 2120/2124 24009KT SCT013
FM220600 VRB03KT P6SM OVC008
FM221700 VRB04KT P6SM OVC010
FM222000 27010KT P6SM SCT012

KLAS 21/06/2018 UTC

TAF KLAS 211729Z 2118/2224 06005KT P6SM SKC
FM212100 18014G22KT P6SM SKC
FM220400 21013KT P6SM SKC
FM221100 VRB06KT P6SM SKC
FM221900 05006KT P6SM SKC
FM222200 12006KT P6SM SKC

KOAK 21/06/2018 UTC

TAF KOAK 211738Z 2118/2224 23007KT P6SM SCT010
FM212000 28012KT P6SM SKC
FM220400 29007KT P6SM FEW012
FM220700 29004KT P6SM SCT010
FM221000 27003KT P6SM BKN010
FM221500 VRB02KT P6SM SCT200
FM222100 29010KT P6SM SKC

KSFO 21/06/2018 UTC

TAF KSFO 211738Z 2118/2224 28012KT P6SM FEW010
FM212000 28016KT P6SM SKC
FM212200 28020G26KT P6SM SKC
FM220400 28013KT P6SM FEW012
FM220800 28008KT P6SM FEW012
FM221100 28007KT P6SM SCT010
FM221500 29003KT P6SM SCT200
FM222000 30015KT P6SM SKC

KSMF 21/06/2018 UTC

TAF KSMF 211728Z 2118/2218 VRB04KT P6SM SKC
FM220100 17006KT P6SM SKC

KSCK 21/06/2018 UTC

TAF KSCK 211728Z 2118/2218 30009KT P6SM SKC
FM220600 34004KT P6SM SKC

KFAT 21/06/2018 UTC

TAF KFAT 211725Z 2118/2218 31009KT P6SM SKC

KJFK 21/06/2018 UTC

TAF KJFK 211721Z 2118/2224 04009KT P6SM SCT060
FM212000 13010KT P6SM FEW250
FM220200 07005KT P6SM FEW250
FM220600 06006KT P6SM SCT050
FM221000 06008KT P6SM SCT020 SCT050
FM221500 09012KT P6SM SCT030 BKN150
FM221800 11015KT P6SM SCT030 BKN100

KPHL 21/06/2018 UTC

TAF KPHL 211720Z 2118/2224 05009KT P6SM BKN040
FM211900 02010KT P6SM SCT040
FM220300 VRB03KT P6SM BKN200
FM221200 09005KT P6SM BKN070
FM221700 09009KT P6SM OVC035
FM222100 08010KT P6SM OVC020

KPIT 21/06/2018 UTC

TAF KPIT 211735Z 2118/2224 04005KT P6SM BKN035
FM220600 10006KT P6SM VCSH OVC070
FM221200 12008KT 5SM -SHRA BKN025
FM222100 12010KT P6SM VCTS OVC025CB

KDEN 21/06/2018 UTC

TAF KDEN 211733Z 2118/2224 01007KT P6SM FEW200
FM212200 05011KT P6SM FEW100
FM220000 08011KT P6SM SCT100
FM220600 15011KT P6SM FEW200
FM221000 19009KT P6SM FEW120 SCT220
FM221500 32008KT P6SM SCT140
FM221700 02006KT P6SM FEW120 BKN180

KMCI 21/06/2018 UTC

TAF KMCI 211748Z 2118/2218 26012G25KT 5SM -RA BKN025
TEMPO 2118/2122 2SM -RA BKN015
FM212200 31011KT P6SM VCSH BKN035
FM220400 33009KT P6SM BKN025
FM220700 33007KT P6SM BKN012
FM221500 34009KT P6SM BKN030

KDFW 21/06/2018 UTC

TAF KDFW 211725Z 2118/2224 35005KT P6SM SCT035
FM212300 18007KT P6SM SCT250
FM221000 23014KT P6SM SCT150

KAUS 21/06/2018 UTC

TAF KAUS 211734Z 2118/2224 13007KT P6SM SCT040 BKN200
FM220900 19004KT 5SM BR BKN012
FM221200 21003KT 3SM BR OVC007
FM221500 19006KT P6SM SCT012 BKN015
FM221600 20010KT P6SM BKN050

KELP 21/06/2018 UTC

TAF KELP 211733Z 2118/2218 13003KT P6SM SKC
FM212000 17005KT P6SM FEW110
FM220600 13009KT P6SM SKC
FM221700 21010KT P6SM SKC

KIAH 21/06/2018 UTC

TAF KIAH 211743Z 2118/2224 16005KT P6SM VCSH SCT025 BKN140 OVC250
TEMPO 2118/2120 TSRA BKN025CB
FM212100 14006KT P6SM SCT040 BKN250
FM220300 18004KT P6SM FEW045 SCT250
FM221000 19002KT P6SM SCT012
TEMPO 2210/2214 5SM BR BKN010
FM221400 21005KT P6SM SCT020 BKN035
FM221700 22006KT P6SM SCT035 SCT250

KSAT 21/06/2018 UTC

TAF KSAT 211734Z 2118/2224 10008KT P6SM SCT030 BKN050
FM220700 18005KT P6SM BKN015
FM221200 17006KT 6SM BR OVC007
FM221500 18007KT P6SM BKN018
FM221600 19010KT P6SM SCT025 BKN050

KTUS 21/06/2018 UTC

TAF KTUS 211720Z 2118/2218 VRB03KT P6SM SKC
FM211900 31010G16KT P6SM SKC
FM220300 27006KT P6SM SKC
FM220800 16005KT P6SM SKC

MMCU 21/06/2018 UTC

TAF MMCU 211743Z 2118/2218 04010KT P6SM SCT030
BECMG 2120/2121 04015KT
FM220200 07008KT P6SM SKC
BECMG 2205/2206 12005KT
FM221600 09005KT P6SM SCT250

MMHO 21/06/2018 UTC

TAF MMHO 211629Z 2118/2218 21006KT P6SM SKC
BECMG 2120/2121 23012KT
FM220200 23006KT P6SM SKC
BECMG 2205/2206 00000KT
FM221800 21006KT P6SM SKC

MMLT 21/06/2018 UTC

TAF MMLT 211644Z 2118/2218 03010KT P6SM SKC
FM220300 03005KT P6SM SCT250
FM221600 03010KT P6SM SCT020

MMSD 21/06/2018 UTC

TAF MMSD 211644Z 2118/2218 16010KT P6SM SKC
FM220300 30005KT P6SM SCT250
FM221700 16010KT P6SM SCT0209

Papua New Guinea, Southwest Pacific

The availability of aerodrome forecasts from overseas locations is dependent on the regular international exchange of data. Some locations may at times be absent. If this problem persists, please advise webav@bom.gov.au

 back to top

NWWW 21/06/2018 UTC

TAF NWWW 211700Z 2118/2218 VRB02KT 9999 SCT040 PROB30 TEMPO 2118/2119 4000 BR BECMG 2122/2124 24008KT

NFFN 21/06/2018 UTC

TAF NFFN 211706Z 2118/2218
16005KT 9999 FEW030
BECMG 2123/2201 26010KT
BECMG 2205/2207 16005KT

NFNA 21/06/2018 UTC

TAF NFNA 211709Z 2118/2218
VRB03KT 9999 -SHRA SCT020 BKN045
PROB30 TEMPO 2118/2124 5000 SHRA BKN018 BKN040
BECMG 2119/2121 16008KT

NFTF 21/06/2018 UTC

TAF NFTF 211712Z 2118/2218
19008KT 9999 FEW018

NSTU 21/06/2018 UTC

TAF NSTU 211721Z 2118/2218 08011KT P6SM VCSH SCT020 BKN035

NVVV 21/06/2018 UTC

TAF NVVV 211600Z 2118/2224 16005KT 9999 SCT020
INTER 2118/2124 9000 -SHRA BKN018

NCRG 21/06/2018 UTC

TAF NCRG 211714Z 2118/2218
04008KT 9999 SCT020
BECMG 2202/2204 34010KT

NTAA 21/06/2018 UTC

TAF NTAA 211700Z 2118/2224 VRB05KT 9999 FEW020 SCT060

NTTG

TAF not available.

NTTO

TAF not available.

NSFA 21/06/2018 UTC

TAF NSFA 211715Z 2118/2218
08005KT 9999 SCT020
PROB30 TEMPO 2118/2124 5000 SHRA BKN018 BKN040

ANYN

TAF not available.

AGGH 21/06/2018 UTC

TAF AGGH 211650Z 2118/2218 16006KT 9999 FEW016

FM212300 07013KT 9999 SCT019 SCT100

T 22 27 30 31 Q 1010 1012 1012 1010

AGGM 21/06/2018 UTC

TAF AGGM 211650Z 2118/2218 O9010KT 9999 FEW016

FM212300 09014KT 9999 SCT019 SCT030

Q 1010 1012 1012 1010

AGGN 21/06/2018 UTC

TAF AGGN 211645Z 2118/2218 11012KT 9999 FEW016

FM212300 14015KT 9999 SCT019 SCT030

Q 1010 1012 1012 1010

AYPY 21/06/2018 UTC

TAF AYPY 210830Z 2112/2212 14015G26KT 9999 SCT030 BKN014
FM211800 15015KT 9999 BKN030

AYNZ

TAF not available.

AYMD

TAF not available.

AYMH

TAF not available.

AYTA

TAF not available.

PKMJ 21/06/2018 UTC

TAF PKMJ 211730Z 2118/2218 29013KT P6SM VCSH FEW015 SCT050 BKN120

NGTA 21/06/2018 UTC

TAF NGTA 211716Z 2118/2218
21006KT 9999 SCT018

PTRO 21/06/2018 UTC

TAF PTRO 211730Z 2118/2218 VRB04KT P6SM VCSH SCT016 BKN120

YLHI 21/06/2018 UTC

TAF YLHI 211520Z 2118/2218
19012KT 9999 -SHRA SCT030 BKN040
FM220800 15008KT 9999 -SHRA SCT020 SCT030
INTER 2118/2208 5000 SHRA BKN030
INTER 2208/2218 5000 SHRA BKN020
RMK
T 17 16 16 16 Q 1022 1022 1022 1023

YSNF 21/06/2018 UTC

TAF AMD YSNF 211708Z 2118/2218
19014KT 9999 -SHRA SCT025 BKN040
FM212200 17015G25KT 9999 -SHRA SCT020 BKN040
FM220800 15012KT 9999 -SHRA SCT020 BKN030
INTER 2118/2206 5000 -SHRA SCT015
INTER 2206/2218 5000 -SHRA BKN015
RMK
T 16 17 18 18 Q 1016 1017 1018 1017

Indonesia, Timor Leste, Papua New Guinea

The availability of aerodrome forecasts from overseas locations is dependent on the regular international exchange of data. Some locations may at times be absent. If this problem persists, please advise webav@bom.gov.au

 back to top

WAAA 21/06/2018 UTC

TAF WAAA 211700Z 2118/2300 10004KT 8000 SCT020
BECMG 2201/2203 22010KT 9999 SCT019
BECMG 2211/2213 08004KT 8000

WAMM 21/06/2018 UTC

TAF COR WAMM 211700Z 2118/2224 10002KT 9999 SCT022
TEMPO 2118/2122 7000 -RA FEW017CB SCT018
BECMG 2200/2202 31007KT
BECMG 2209/2211 10002KT FEW022

WAMP

TAF not available.

WAJJ 21/06/2018 UTC

TAF WAJJ 211700Z 2118/2218 00000KT 9999 SCT013
BECMG 2121/2123 13005KT
BECMG 2123/2101 13010KT
TEMPO 2204/2207 FEW012CB FEW013
BECMG 2207/2208 29005KT
BECMG 2210/2212 00000KT

WAPP 21/06/2018 UTC

TAF WAPP 211700Z 2118/2218 34006KT 9999 SCT018
TEMPO 2122/2201 6000 -RA BKN016

WABB 21/06/2018 UTC

TAF WABB 211700Z 2118/2300 03003KT 9999 SCT018
TEMPO 2120/2200 7000 RA FEW017CB
BECMG 2200/2202 12008KT

WPDL 21/06/2018 UTC

TAF COR WPDL 211714Z 2118/2206
14005KT CAVOK
FM220000 02010KT CAVOK
RMK
T 25 24 29 30 Q 1012 1013 1014 1013

WATT 21/06/2018 UTC

TAF WATT 211700Z 2118/2218 10009KT 8000 FEW018
BECMG 2201/2203 10016KT
TEMPO 2205/2209 12010G20KT SCT018
BECMG 2212/2214 11010KT 8000
BECMG 2216/2217 14005KT

WIII 21/06/2018 UTC

TAF WIII 211700Z 2118/2300 13005KT 7000 SCT020

WIHH 21/06/2018 UTC

TAF WIHH 211100Z 2112/2212 06010KT 8000 FEW020
BECMG 2118/2120 00000KT 5000 HZ

WIMM 21/06/2018 UTC

TAF WIMM 211700Z 2118/2218 VRB04KT 3000 BR SCT018
BECMG 2203/2205 05010KT 9000
TEMPO 2209/2211 6000 -TSRA FEW017CB SCT018
BECMG 2211/2213 VRB05KT 4500 HZ

WARR 21/06/2018 UTC

TAF WARR 211700Z 2118/2218 10005KT 7000 FEW020
TEMPO 2121/2200 26005KT 4000 HZ
BECMG 2200/2202 11010KT 9999

WADD 21/06/2018 UTC

TAF WADD 211700Z 2118/2218 11015KT 9999 SCT017
BECMG 2210/2212 11010KT

AYPY 21/06/2018 UTC

TAF AYPY 210830Z 2112/2212 14015G26KT 9999 SCT030 BKN014
FM211800 15015KT 9999 BKN030

AYNZ

TAF not available.

AYMH

TAF not available.

AYMD

TAF not available.

AYHK

TAF not available.

AYTK

TAF not available.

AYVN

TAF not available.

AYWK

TAF not available.

AYGA

TAF not available.

AYDU

TAF not available.

AYMS

TAF not available.

AYRB

TAF not available.

AYTB

TAF not available.

AYKI

TAF not available.

AYKT

TAF not available.

AYBK

TAF not available.

AYKM

TAF not available.

AYKY

TAF not available.

AYMO

TAF not available.

AYKV

TAF not available.

Accessing this Service

By entering this site, you acknowledge that this information is produced solely for use by the aviation industry, and you are aware that any information for the purposes of flight planning should be obtained from Airservices Australia.